createdAt,value
2023-02-18T00:01:42.417Z,13.68
2023-02-18T00:04:11.614Z,13.71
2023-02-18T00:06:40.275Z,13.72
2023-02-18T00:09:09.055Z,13.69
2023-02-18T00:11:38.645Z,13.71
2023-02-18T00:14:08.307Z,13.72
2023-02-18T00:16:36.111Z,13.72
2023-02-18T00:19:06.258Z,13.72
2023-02-18T00:21:36.794Z,13.72
2023-02-18T00:24:05.450Z,13.70
2023-02-18T00:26:33.211Z,13.74
2023-02-18T00:29:01.389Z,13.80
2023-02-18T00:31:30.818Z,13.78
2023-02-18T00:33:59.721Z,13.73
2023-02-18T00:36:28.399Z,13.78
2023-02-18T00:39:01.167Z,13.77
2023-02-18T00:41:29.839Z,13.76
2023-02-18T00:43:57.681Z,13.73
2023-02-18T00:46:26.435Z,13.79
2023-02-18T00:48:54.471Z,13.74
2023-02-18T00:51:22.759Z,13.75
2023-02-18T00:53:51.355Z,13.70
2023-02-18T00:56:20.480Z,13.64
2023-02-18T00:58:50.369Z,13.68
2023-02-18T01:01:18.057Z,13.69
2023-02-18T01:03:46.391Z,13.71
2023-02-18T01:06:14.795Z,13.71
2023-02-18T01:08:42.870Z,13.68
2023-02-18T01:11:13.125Z,13.62
2023-02-18T01:13:42.939Z,13.62
2023-02-18T01:16:11.666Z,13.61
2023-02-18T01:18:40.474Z,13.59
2023-02-18T01:21:08.929Z,13.58
2023-02-18T01:23:37.314Z,13.56
2023-02-18T01:26:05.679Z,13.64
2023-02-18T01:28:33.903Z,13.63
2023-02-18T01:31:06.672Z,13.67
2023-02-18T01:33:34.660Z,13.62
2023-02-18T01:36:02.336Z,13.65
2023-02-18T01:38:30.363Z,13.62
2023-02-18T01:40:58.158Z,13.64
2023-02-18T01:43:25.938Z,13.63
2023-02-18T01:46:01.252Z,13.63
2023-02-18T01:48:33.540Z,13.65
2023-02-18T01:51:04.463Z,13.66
2023-02-18T01:53:36.945Z,13.67
2023-02-18T01:56:08.404Z,13.57
2023-02-18T01:58:37.282Z,13.55
2023-02-18T02:01:06.015Z,13.56
2023-02-18T02:03:35.349Z,13.52
2023-02-18T02:06:03.074Z,13.54
2023-02-18T02:08:31.326Z,13.51
2023-02-18T02:11:15.909Z,13.50
2023-02-18T02:13:57.384Z,13.46
2023-02-18T02:16:31.064Z,13.41
2023-02-18T02:19:13.077Z,13.37
2023-02-18T02:22:06.928Z,13.31
2023-02-18T02:24:58.528Z,13.31
2023-02-18T02:27:30.999Z,13.33
2023-02-18T02:30:30.069Z,13.29
2023-02-18T02:33:33.203Z,13.29
2023-02-18T02:36:09.233Z,13.24
2023-02-18T02:38:44.144Z,13.35
2023-02-18T02:41:22.781Z,13.29
2023-02-18T02:43:58.152Z,13.28
2023-02-18T02:46:32.538Z,13.30
2023-02-18T02:49:08.644Z,13.29
2023-02-18T02:51:44.496Z,13.35
2023-02-18T02:54:15.842Z,13.32
2023-02-18T02:56:43.939Z,13.27
2023-02-18T02:59:15.726Z,13.28
2023-02-18T03:01:59.451Z,13.23
2023-02-18T03:04:46.986Z,13.18
2023-02-18T03:07:35.188Z,13.19
2023-02-18T03:10:18.221Z,13.19
2023-02-18T03:12:57.373Z,13.19
2023-02-18T03:15:37.970Z,13.20
2023-02-18T03:18:13.085Z,13.22
2023-02-18T03:20:47.620Z,13.21
2023-02-18T03:23:21.794Z,13.17
2023-02-18T03:25:50.671Z,13.20
2023-02-18T03:28:20.707Z,13.17
2023-02-18T03:30:53.869Z,13.13
2023-02-18T03:33:27.567Z,13.08
2023-02-18T03:35:57.431Z,13.04
2023-02-18T03:38:32.936Z,13.02
2023-02-18T03:41:00.758Z,13.04
2023-02-18T03:43:29.522Z,13.04
2023-02-18T03:45:57.508Z,13.07
2023-02-18T03:48:25.347Z,13.09
2023-02-18T03:50:52.946Z,13.05
2023-02-18T03:53:20.723Z,13.02
2023-02-18T03:55:49.749Z,13.06
2023-02-18T03:58:17.438Z,13.10
2023-02-18T04:00:45.096Z,13.13
2023-02-18T04:03:12.806Z,13.13
2023-02-18T04:05:42.212Z,13.12
2023-02-18T04:08:09.900Z,13.06
2023-02-18T04:10:37.581Z,13.05
2023-02-18T04:13:06.662Z,13.04
2023-02-18T04:15:35.086Z,12.98
2023-02-18T04:18:02.804Z,12.92
2023-02-18T04:20:31.188Z,12.94
2023-02-18T04:22:58.907Z,12.93
2023-02-18T04:25:26.816Z,12.91
2023-02-18T04:27:54.525Z,12.95
2023-02-18T04:30:23.658Z,12.97
2023-02-18T04:32:51.377Z,12.93
2023-02-18T04:35:19.543Z,12.99
2023-02-18T04:37:47.175Z,12.81
2023-02-18T04:40:15.262Z,12.84
2023-02-18T04:42:42.945Z,12.91
2023-02-18T04:45:10.579Z,12.88
2023-02-18T04:47:39.594Z,12.80
2023-02-18T04:50:08.679Z,12.80
2023-02-18T04:52:36.427Z,12.82
2023-02-18T04:55:04.191Z,12.83
2023-02-18T04:57:31.926Z,12.82
2023-02-18T04:59:59.596Z,12.90
2023-02-18T05:02:27.363Z,12.85
2023-02-18T05:04:56.309Z,12.83
2023-02-18T05:07:23.976Z,12.82
2023-02-18T05:09:51.881Z,12.96
2023-02-18T05:12:19.642Z,12.89
2023-02-18T05:14:47.484Z,12.93
2023-02-18T05:17:15.221Z,12.96
2023-02-18T05:19:42.995Z,12.96
2023-02-18T05:22:12.113Z,12.93
2023-02-18T05:24:39.918Z,12.93
2023-02-18T05:27:07.703Z,12.89
2023-02-18T05:29:35.451Z,12.93
2023-02-18T05:32:03.119Z,12.95
2023-02-18T05:34:30.825Z,13.01
2023-02-18T05:36:58.509Z,13.03
2023-02-18T05:39:27.670Z,13.06
2023-02-18T05:41:55.402Z,13.10
2023-02-18T05:44:32.504Z,13.11
2023-02-18T05:47:01.183Z,13.12
2023-02-18T05:49:29.484Z,13.17
2023-02-18T05:51:57.586Z,13.17
2023-02-18T05:54:27.299Z,13.15
2023-02-18T05:56:55.823Z,13.16
2023-02-18T05:59:23.643Z,13.17
2023-02-18T06:01:51.606Z,13.20
2023-02-18T06:04:19.309Z,13.17
2023-02-18T06:06:47.376Z,13.17
2023-02-18T06:09:15.131Z,13.18
2023-02-18T06:11:44.677Z,13.16
2023-02-18T06:14:12.421Z,13.15
2023-02-18T06:16:40.263Z,13.16
2023-02-18T06:19:08.169Z,13.16
2023-02-18T06:21:36.022Z,13.22
2023-02-18T06:24:03.777Z,13.21
2023-02-18T06:26:31.660Z,13.18
2023-02-18T06:29:00.853Z,13.14
2023-02-18T06:31:28.559Z,13.17
2023-02-18T06:33:56.375Z,13.18
2023-02-18T06:36:24.301Z,13.19
2023-02-18T06:38:52.105Z,13.14
2023-02-18T06:41:19.776Z,13.14
2023-02-18T06:43:47.773Z,13.15
2023-02-18T06:46:16.840Z,13.19
2023-02-18T06:48:44.534Z,13.22
2023-02-18T06:51:12.478Z,13.19
2023-02-18T06:53:40.278Z,13.18
2023-02-18T06:56:08.433Z,13.23
2023-02-18T06:58:36.312Z,13.26
2023-02-18T07:01:04.271Z,13.25
2023-02-18T07:03:34.062Z,13.33
2023-02-18T07:06:01.840Z,13.32
2023-02-18T07:08:30.770Z,13.33
2023-02-18T07:10:58.422Z,13.32
2023-02-18T07:13:26.148Z,13.29
2023-02-18T07:15:53.890Z,13.31
2023-02-18T07:18:21.718Z,13.33
2023-02-18T07:20:50.781Z,13.37
2023-02-18T07:23:18.441Z,13.40
2023-02-18T07:25:46.121Z,13.39
2023-02-18T07:28:13.947Z,13.42
2023-02-18T07:30:41.648Z,13.44
2023-02-18T07:33:09.414Z,13.49
2023-02-18T07:35:37.279Z,13.48
2023-02-18T07:38:06.354Z,13.47
2023-02-18T07:40:33.994Z,13.51
2023-02-18T07:43:01.607Z,13.58
2023-02-18T07:45:29.375Z,13.51
2023-02-18T07:47:57.001Z,13.51
2023-02-18T07:50:24.604Z,13.53
2023-02-18T07:52:52.276Z,13.53
2023-02-18T07:55:21.446Z,13.60
2023-02-18T07:58:02.341Z,13.60
2023-02-18T08:00:30.173Z,13.57
2023-02-18T08:02:57.869Z,13.57
2023-02-18T08:05:28.804Z,13.53
2023-02-18T08:07:56.499Z,13.53
2023-02-18T08:10:25.592Z,13.56
2023-02-18T08:12:53.340Z,13.57
2023-02-18T08:15:21.014Z,13.63
2023-02-18T08:17:48.736Z,13.65
2023-02-18T08:20:16.817Z,13.65
2023-02-18T08:22:44.724Z,13.66
2023-02-18T08:25:27.544Z,13.73
2023-02-18T08:27:58.074Z,13.76
2023-02-18T08:30:26.262Z,13.70
2023-02-18T08:32:54.087Z,13.74
2023-02-18T08:35:22.188Z,13.75
2023-02-18T08:37:52.925Z,13.79
2023-02-18T08:40:22.629Z,13.81
2023-02-18T08:42:50.354Z,13.87
2023-02-18T08:45:19.752Z,13.96
2023-02-18T08:48:16.594Z,13.99
2023-02-18T08:50:36.862Z,14.02
2023-02-18T08:53:05.661Z,14.01
2023-02-18T08:55:35.120Z,13.99
2023-02-18T08:58:02.783Z,13.98
2023-02-18T09:00:31.883Z,14.08
2023-02-18T09:03:00.069Z,14.09
2023-02-18T09:05:28.380Z,14.22
2023-02-18T09:07:56.428Z,14.36
2023-02-18T09:10:24.454Z,14.54
2023-02-18T09:12:52.238Z,14.63
2023-02-18T09:15:20.462Z,14.75
2023-02-18T09:17:49.543Z,14.82
2023-02-18T09:20:17.291Z,14.99
2023-02-18T09:22:45.164Z,15.00
2023-02-18T09:25:13.017Z,15.07
2023-02-18T09:27:40.819Z,15.07
2023-02-18T09:30:09.473Z,15.17
2023-02-18T09:32:37.323Z,15.15
2023-02-18T09:35:06.626Z,15.20
2023-02-18T09:37:34.315Z,15.22
2023-02-18T09:40:01.949Z,15.28
2023-02-18T09:42:33.455Z,15.00
2023-02-18T09:45:03.464Z,14.84
2023-02-18T09:47:36.068Z,14.75
2023-02-18T09:50:08.905Z,14.72
2023-02-18T09:52:39.378Z,14.67
2023-02-18T09:55:20.241Z,14.64
2023-02-18T09:57:50.503Z,14.50
2023-02-18T10:00:23.068Z,14.44
2023-02-18T10:02:56.994Z,14.32
2023-02-18T10:05:29.147Z,14.22
2023-02-18T10:08:01.329Z,14.28
2023-02-18T10:10:49.648Z,14.34
2023-02-18T10:13:20.861Z,14.40
2023-02-18T10:15:49.196Z,14.34
2023-02-18T10:18:26.757Z,14.38
2023-02-18T10:21:01.956Z,14.48
2023-02-18T10:23:32.622Z,14.43
2023-02-18T10:26:03.787Z,14.38
2023-02-18T10:28:32.809Z,14.32
2023-02-18T10:31:04.548Z,14.30
2023-02-18T10:33:41.295Z,14.30
2023-02-18T10:36:24.062Z,14.26
2023-02-18T10:39:17.099Z,14.12
2023-02-18T10:41:55.067Z,14.14
2023-02-18T10:44:35.176Z,14.20
2023-02-18T10:47:16.047Z,14.18
2023-02-18T10:49:59.496Z,14.18
2023-02-18T10:52:34.302Z,14.14
2023-02-18T10:55:05.017Z,14.21
2023-02-18T10:57:33.717Z,14.24
2023-02-18T11:00:10.666Z,14.31
2023-02-18T11:02:40.536Z,14.28
2023-02-18T11:05:20.630Z,14.33
2023-02-18T11:07:53.689Z,14.43
2023-02-18T11:10:27.021Z,14.38
2023-02-18T11:12:58.614Z,14.42
2023-02-18T11:15:28.136Z,14.44
2023-02-18T11:17:59.273Z,14.46
2023-02-18T11:20:33.553Z,14.47
2023-02-18T11:23:18.181Z,14.54
2023-02-18T11:25:57.620Z,14.57
2023-02-18T11:28:32.636Z,14.72
2023-02-18T11:31:02.354Z,14.83
2023-02-18T11:33:35.609Z,15.10
2023-02-18T11:36:15.386Z,15.29
2023-02-18T11:38:47.913Z,15.47
2023-02-18T11:41:18.054Z,15.64
2023-02-18T11:43:49.197Z,15.68
2023-02-18T11:46:19.404Z,15.72
2023-02-18T11:48:47.767Z,15.55
2023-02-18T11:51:18.297Z,15.49
2023-02-18T11:54:00.613Z,15.39
2023-02-18T11:56:30.310Z,15.33
2023-02-18T11:58:59.282Z,15.26
2023-02-18T12:01:51.678Z,15.05
2023-02-18T12:04:22.644Z,14.87
2023-02-18T12:06:55.450Z,14.73
2023-02-18T12:09:29.731Z,14.68
2023-02-18T12:12:01.625Z,14.56
2023-02-18T12:14:29.469Z,14.53
2023-02-18T12:17:16.515Z,14.52
2023-02-18T12:20:08.023Z,14.38
2023-02-18T12:22:43.897Z,14.40
2023-02-18T12:25:25.605Z,14.39
2023-02-18T12:28:05.326Z,14.38
2023-02-18T12:31:01.704Z,14.44
2023-02-18T12:33:42.626Z,14.36
2023-02-18T12:36:18.493Z,14.37
2023-02-18T12:39:03.256Z,14.40
2023-02-18T12:41:53.977Z,14.39
2023-02-18T12:44:35.415Z,14.39
2023-02-18T12:47:23.776Z,14.37
2023-02-18T12:50:15.859Z,14.40
2023-02-18T12:52:54.480Z,14.39
2023-02-18T12:55:41.127Z,14.38
2023-02-18T12:58:23.176Z,14.35
2023-02-18T13:01:09.642Z,14.34
2023-02-18T13:04:11.692Z,14.29
2023-02-18T13:07:20.905Z,14.31
2023-02-18T13:10:04.726Z,14.41
2023-02-18T13:12:40.174Z,14.41
2023-02-18T13:15:18.704Z,14.42
2023-02-18T13:17:47.628Z,14.45
2023-02-18T13:20:21.412Z,14.43
2023-02-18T13:22:50.586Z,14.47
2023-02-18T13:25:20.356Z,14.46
2023-02-18T13:27:55.385Z,14.47
2023-02-18T13:30:28.973Z,14.51
2023-02-18T13:33:09.297Z,14.48
2023-02-18T13:35:41.417Z,14.51
2023-02-18T13:38:34.817Z,14.53
2023-02-18T13:41:03.199Z,14.51
2023-02-18T13:43:32.496Z,14.56
2023-02-18T13:46:14.461Z,14.58
2023-02-18T13:48:49.814Z,14.57
2023-02-18T13:51:29.253Z,14.47
2023-02-18T13:54:03.575Z,14.50
2023-02-18T13:56:34.015Z,14.50
2023-02-18T13:59:03.912Z,14.55
2023-02-18T14:01:42.614Z,14.61
2023-02-18T14:04:49.305Z,14.68
2023-02-18T14:07:30.246Z,14.69
2023-02-18T14:09:58.649Z,14.67
2023-02-18T14:12:45.233Z,14.67
2023-02-18T14:16:02.130Z,14.68
2023-02-18T14:18:55.505Z,14.61
2023-02-18T14:21:37.717Z,14.54
2023-02-18T14:24:07.447Z,14.53
2023-02-18T14:26:38.918Z,14.56
2023-02-18T14:29:12.415Z,14.58
2023-02-18T14:31:48.374Z,14.53
2023-02-18T14:35:08.266Z,14.49
2023-02-18T14:38:02.100Z,14.45
2023-02-18T14:40:46.897Z,14.38
2023-02-18T14:43:28.038Z,14.45
2023-02-18T14:46:11.396Z,14.40
2023-02-18T14:49:12.307Z,14.37
2023-02-18T14:51:43.297Z,14.31
2023-02-18T14:54:16.847Z,14.29
2023-02-18T14:56:55.114Z,14.22
2023-02-18T14:59:24.888Z,14.45
2023-02-18T15:01:56.724Z,14.32
2023-02-18T15:04:26.125Z,14.27
2023-02-18T15:07:00.941Z,14.28
2023-02-18T15:09:29.989Z,14.29
2023-02-18T15:12:01.418Z,14.29
2023-02-18T15:14:32.262Z,14.27
2023-02-18T15:17:00.955Z,14.26
2023-02-18T15:19:31.506Z,14.30
2023-02-18T15:21:59.486Z,14.26
2023-02-18T15:24:32.620Z,14.25
2023-02-18T15:27:03.833Z,14.22
2023-02-18T15:29:35.238Z,14.19
2023-02-18T15:32:16.412Z,14.23
2023-02-18T15:34:45.007Z,14.21
2023-02-18T15:37:14.757Z,14.19
2023-02-18T15:39:44.865Z,14.21
2023-02-18T15:42:28.073Z,14.18
2023-02-18T15:44:58.733Z,14.12
2023-02-18T15:47:26.846Z,14.02
2023-02-18T15:49:58.003Z,14.00
2023-02-18T15:52:28.242Z,13.97
2023-02-18T15:55:02.095Z,14.00
2023-02-18T15:57:31.766Z,13.92
2023-02-18T16:00:04.585Z,13.80
2023-02-18T16:02:35.159Z,13.83
2023-02-18T16:05:05.505Z,13.84
2023-02-18T16:07:39.411Z,13.87
2023-02-18T16:10:17.843Z,13.80
2023-02-18T16:12:48.505Z,13.80
2023-02-18T16:15:23.321Z,13.81
2023-02-18T16:17:51.307Z,13.84
2023-02-18T16:20:27.599Z,13.90
2023-02-18T16:22:56.752Z,13.91
2023-02-18T16:25:36.323Z,13.91
2023-02-18T16:28:08.758Z,13.92
2023-02-18T16:30:37.294Z,13.91
2023-02-18T16:33:05.173Z,13.92
2023-02-18T16:35:47.603Z,13.85
2023-02-18T16:38:18.099Z,13.71
2023-02-18T16:40:47.236Z,13.74
2023-02-18T16:43:16.864Z,13.81
2023-02-18T16:45:48.400Z,13.83
2023-02-18T16:48:22.021Z,13.83
2023-02-18T16:50:51.744Z,13.78
2023-02-18T16:53:20.011Z,13.85
2023-02-18T16:55:50.374Z,13.76
2023-02-18T16:58:18.284Z,13.68
2023-02-18T17:00:47.233Z,13.61
2023-02-18T17:03:15.204Z,13.65
2023-02-18T17:05:42.900Z,13.65
2023-02-18T17:08:18.791Z,13.67
2023-02-18T17:10:47.518Z,13.67
2023-02-18T17:13:18.119Z,13.66
2023-02-18T17:15:48.641Z,13.63
2023-02-18T17:18:16.953Z,13.61
2023-02-18T17:20:45.541Z,13.58
2023-02-18T17:23:15.827Z,13.53
2023-02-18T17:25:44.044Z,13.56
2023-02-18T17:28:12.409Z,13.56
2023-02-18T17:30:42.806Z,13.58
2023-02-18T17:33:15.474Z,13.50
2023-02-18T17:35:43.350Z,13.51
2023-02-18T17:38:12.449Z,13.45
2023-02-18T17:40:40.489Z,13.48
2023-02-18T17:43:13.031Z,13.44
2023-02-18T17:45:46.514Z,13.40
2023-02-18T17:48:14.299Z,13.38
2023-02-18T17:50:42.713Z,13.41
2023-02-18T17:53:11.658Z,13.43
2023-02-18T17:55:41.384Z,13.44
2023-02-18T17:58:09.281Z,13.37
2023-02-18T18:00:40.288Z,13.33
2023-02-18T18:03:10.134Z,13.33
2023-02-18T18:05:40.448Z,13.28
2023-02-18T18:08:09.089Z,13.23
2023-02-18T18:10:39.445Z,13.16
2023-02-18T18:13:10.489Z,13.14
2023-02-18T18:15:41.183Z,13.09
2023-02-18T18:18:12.064Z,13.08
2023-02-18T18:20:41.052Z,13.08
2023-02-18T18:23:10.471Z,13.01
2023-02-18T18:25:40.264Z,12.97
2023-02-18T18:28:09.466Z,12.89
2023-02-18T18:30:40.345Z,12.86
2023-02-18T18:33:16.770Z,12.81
2023-02-18T18:35:46.888Z,12.81
2023-02-18T18:38:17.431Z,12.82
2023-02-18T18:40:46.327Z,12.73
2023-02-18T18:43:19.997Z,12.76
2023-02-18T18:45:48.882Z,12.77
2023-02-18T18:48:20.157Z,12.83
2023-02-18T18:50:48.652Z,12.87
2023-02-18T18:53:20.075Z,12.84
2023-02-18T18:55:50.700Z,12.88
2023-02-18T18:58:21.016Z,12.83
2023-02-18T19:00:53.890Z,12.81
2023-02-18T19:03:24.585Z,12.74
2023-02-18T19:05:52.725Z,12.63
2023-02-18T19:08:21.713Z,12.64
2023-02-18T19:10:51.377Z,12.68
2023-02-18T19:13:21.812Z,12.68
2023-02-18T19:15:51.467Z,12.73
2023-02-18T19:18:21.150Z,12.75
2023-02-18T19:20:50.384Z,12.72
2023-02-18T19:23:18.105Z,12.73
2023-02-18T19:25:45.913Z,12.73
2023-02-18T19:28:14.624Z,12.74
2023-02-18T19:30:42.978Z,12.70
2023-02-18T19:33:14.859Z,12.71
2023-02-18T19:35:43.884Z,12.70
2023-02-18T19:38:14.809Z,12.71
2023-02-18T19:40:43.838Z,12.68
2023-02-18T19:43:12.844Z,12.69
2023-02-18T19:45:43.014Z,12.71
2023-02-18T19:48:12.191Z,12.70
2023-02-18T19:50:40.928Z,12.72
2023-02-18T19:53:09.065Z,12.74
2023-02-18T19:55:38.050Z,12.78
2023-02-18T19:58:05.661Z,12.78
2023-02-18T20:00:33.371Z,12.78
2023-02-18T20:03:01.182Z,12.82
2023-02-18T20:05:29.074Z,12.75
2023-02-18T20:07:56.997Z,12.73
2023-02-18T20:10:25.367Z,12.69
2023-02-18T20:12:55.158Z,12.67
2023-02-18T20:15:23.576Z,12.63
2023-02-18T20:17:51.545Z,12.60
2023-02-18T20:20:19.898Z,12.60
2023-02-18T20:22:47.634Z,12.60
2023-02-18T20:25:15.428Z,12.65
2023-02-18T20:27:59.545Z,12.68
2023-02-18T20:30:30.179Z,12.65
2023-02-18T20:32:58.211Z,12.65
2023-02-18T20:35:26.350Z,12.60
2023-02-18T20:37:54.155Z,12.62
2023-02-18T20:40:21.876Z,12.61
2023-02-18T20:42:49.821Z,12.60
2023-02-18T20:45:17.993Z,12.56
2023-02-18T20:47:47.003Z,12.56
2023-02-18T20:50:15.898Z,12.54
2023-02-18T20:52:43.691Z,12.53
2023-02-18T20:55:11.413Z,12.34
2023-02-18T20:57:39.179Z,12.30
2023-02-18T21:00:08.225Z,12.21
2023-02-18T21:02:36.007Z,12.37
2023-02-18T21:05:05.345Z,12.49
2023-02-18T21:07:33.593Z,12.55
2023-02-18T21:10:01.302Z,12.55
2023-02-18T21:12:29.032Z,12.58
2023-02-18T21:14:56.722Z,12.60
2023-02-18T21:17:24.506Z,12.62
2023-02-18T21:19:52.347Z,12.62
2023-02-18T21:22:21.478Z,12.66
2023-02-18T21:24:51.564Z,12.61
2023-02-18T21:27:19.170Z,12.67
2023-02-18T21:29:46.923Z,12.67
2023-02-18T21:32:14.812Z,12.69
2023-02-18T21:34:42.597Z,12.70
2023-02-18T21:37:11.367Z,12.65
2023-02-18T21:39:40.390Z,12.67
2023-02-18T21:42:08.145Z,12.71
2023-02-18T21:44:42.427Z,12.68
2023-02-18T21:47:10.694Z,12.69
2023-02-18T21:49:38.474Z,12.70
2023-02-18T21:52:09.330Z,12.69
2023-02-18T21:54:39.298Z,12.68
2023-02-18T21:57:11.566Z,12.67
2023-02-18T21:59:40.152Z,12.65
2023-02-18T22:02:13.572Z,12.67
2023-02-18T22:04:41.465Z,12.72
2023-02-18T22:07:09.061Z,12.76
2023-02-18T22:09:36.943Z,12.74
2023-02-18T22:12:05.322Z,12.72
2023-02-18T22:14:34.324Z,12.75
2023-02-18T22:17:02.323Z,12.74
2023-02-18T22:19:30.028Z,12.72
2023-02-18T22:21:57.938Z,12.70
2023-02-18T22:24:25.681Z,12.69
2023-02-18T22:26:53.886Z,12.67
2023-02-18T22:29:22.098Z,12.68
2023-02-18T22:31:53.370Z,12.69
2023-02-18T22:34:21.702Z,12.71
2023-02-18T22:36:49.468Z,12.72
2023-02-18T22:39:17.543Z,12.74
2023-02-18T22:41:45.745Z,12.68
2023-02-18T22:44:15.604Z,12.63
2023-02-18T22:46:43.306Z,12.66
2023-02-18T22:49:12.742Z,12.69
2023-02-18T22:51:42.583Z,12.69
2023-02-18T22:54:13.476Z,12.63
2023-02-18T22:56:41.283Z,12.63
2023-02-18T22:59:09.095Z,12.61
2023-02-18T23:01:38.942Z,12.66
2023-02-18T23:04:09.446Z,12.64
2023-02-18T23:06:40.087Z,12.64
2023-02-18T23:09:09.427Z,12.67
2023-02-18T23:11:37.073Z,12.67
2023-02-18T23:14:20.097Z,12.66
2023-02-18T23:17:06.634Z,12.62
2023-02-18T23:19:35.901Z,12.60
2023-02-18T23:22:05.746Z,12.63
2023-02-18T23:24:34.448Z,12.63
2023-02-18T23:27:02.528Z,12.60
2023-02-18T23:29:30.171Z,12.60
2023-02-18T23:31:58.049Z,12.61
2023-02-18T23:34:25.844Z,12.67
2023-02-18T23:36:53.660Z,12.67
2023-02-18T23:39:23.967Z,12.61
2023-02-18T23:41:53.029Z,12.59
2023-02-18T23:44:23.800Z,12.64
2023-02-18T23:46:51.738Z,12.60
2023-02-18T23:49:24.629Z,12.50
2023-02-18T23:51:54.233Z,12.50
2023-02-18T23:54:23.693Z,12.51
2023-02-18T23:56:51.593Z,12.47
2023-02-18T23:59:19.828Z,12.46
